Time;durP1;ratioP1;P1;durP2;ratioP2;P2;SDS_P1;SDS_P2;PMS_P1;PMS_P2;Temp;Humidity;BMP_temperature;BMP_pressure;BME280_temperature;BME280_humidity;BME280_pressure;Samples;Min_cycle;Max_cycle;Signal;HPM_P1;HPM_P2
2022/01/24 00:01:44;;;;;;;;;;;;;;;-1.97;55.51;101221.97;4458554;32;33794;-85
2022/01/24 00:04:13;;;;;;;;;;;;;;;-1.81;54.96;101215.28;4455993;32;33754;-85
2022/01/24 00:06:42;;;;;;;;;;;;;;;-1.97;55.45;101213.47;4449536;32;34007;-85
2022/01/24 00:09:11;;;;;;;;;;;;;;;-1.87;55.21;101214.91;4448920;32;33783;-85
2022/01/24 00:11:46;;;;;;;;;;;;;;;-2.05;55.65;101219.75;4451959;32;34715;-86
2022/01/24 00:17:10;;;;;;;;;;;;;;;-1.89;54.91;101219.03;4447906;32;34161;-86
2022/01/24 00:28:02;;;;;;;;;;;;;;;-2.25;56.30;101242.25;4406403;32;33736;-87
2022/01/24 00:30:32;;;;;;;;;;;;;;;-2.13;55.66;101246.34;4386267;32;33455;-86
2022/01/24 00:33:00;;;;;;;;;;;;;;;-2.27;56.05;101245.47;4405551;32;32161;-86
2022/01/24 00:35:29;;;;;;;;;;;;;;;-2.59;56.93;101245.19;4399020;32;35604;-87
2022/01/24 00:38:00;;;;;;;;;;;;;;;-2.51;56.78;101243.16;4406920;32;33803;-86
2022/01/24 00:40:37;;;;;;;;;;;;;;;-2.47;56.66;101251.84;4397958;32;34250;-85
2022/01/24 00:43:18;;;;;;;;;;;;;;;-2.63;56.61;101255.94;4394918;32;35072;-86
2022/01/24 00:45:57;;;;;;;;;;;;;;;-2.61;56.95;101250.94;4395085;32;34020;-86
2022/01/24 00:48:36;;;;;;;;;;;;;;;-2.60;56.71;101253.59;4387106;32;33653;-86
2022/01/24 00:54:42;;;;;;;;;;;;;;;-2.68;56.63;101259.84;4410987;32;34223;-86
2022/01/24 00:56:52;;;;;;;;;;;;;;;-2.60;56.19;101256.12;4404929;32;34895;-86
2022/01/24 00:59:20;;;;;;;;;;;;;;;-2.94;57.06;101247.97;4434538;32;33488;-87
2022/01/24 01:01:50;;;;;;;;;;;;;;;-2.69;56.23;101242.81;4448881;32;33888;-86
2022/01/24 01:04:21;;;;;;;;;;;;;;;-2.53;55.99;101249.78;4448984;32;35034;-86
2022/01/24 01:06:53;;;;;;;;;;;;;;;-2.64;55.97;101250.75;4450375;32;33963;-85
2022/01/24 01:18:08;;;;;;;;;;;;;;;-3.02;57.52;101232.25;4408582;32;34517;-85
2022/01/24 01:20:52;;;;;;;;;;;;;;;-2.99;57.56;101233.22;4411488;32;34028;-85
2022/01/24 01:23:20;;;;;;;;;;;;;;;-2.95;57.63;101242.78;4431505;32;34867;-85
2022/01/24 01:25:50;;;;;;;;;;;;;;;-3.06;57.65;101239.56;4423973;32;34545;-85
2022/01/24 01:28:20;;;;;;;;;;;;;;;-2.95;57.15;101247.88;4432743;32;34031;-85
2022/01/24 01:30:52;;;;;;;;;;;;;;;-2.73;56.32;101245.97;4414220;32;33288;-85
2022/01/24 01:33:34;;;;;;;;;;;;;;;-2.89;56.69;101248.28;4432556;32;33614;-85
2022/01/24 01:36:09;;;;;;;;;;;;;;;-2.80;56.36;101246.34;4411749;32;33822;-86
2022/01/24 01:52:51;;;;;;;;;;;;;;;-3.39;58.28;101249.19;4447834;32;33407;-85
2022/01/24 01:55:36;;;;;;;;;;;;;;;-2.97;56.74;101245.25;4451261;32;34944;-85
2022/01/24 01:58:05;;;;;;;;;;;;;;;-3.06;56.89;101245.50;4451857;32;34253;-85
2022/01/24 02:00:33;;;;;;;;;;;;;;;-3.26;57.46;101249.25;4450313;32;34168;-85
2022/01/24 02:03:02;;;;;;;;;;;;;;;-3.43;57.99;101249.78;4450874;32;34178;-85
2022/01/24 02:05:32;;;;;;;;;;;;;;;-3.24;57.34;101241.72;4463822;32;33100;-86
2022/01/24 02:08:00;;;;;;;;;;;;;;;-3.45;58.34;101248.78;4458472;32;34261;-85
2022/01/24 02:10:29;;;;;;;;;;;;;;;-3.18;57.36;101239.63;4452705;32;34748;-85
2022/01/24 02:12:58;;;;;;;;;;;;;;;-3.33;57.75;101248.75;4461234;32;33215;-85
2022/01/24 02:15:36;;;;;;;;;;;;;;;-3.55;58.11;101247.28;4461256;32;34094;-85
2022/01/24 02:18:11;;;;;;;;;;;;;;;-3.30;57.72;101262.50;4459447;32;34001;-86
2022/01/24 02:21:05;;;;;;;;;;;;;;;-3.38;57.46;101260.22;4443720;32;33529;-85
2022/01/24 02:23:41;;;;;;;;;;;;;;;-3.31;57.18;101268.38;4440597;32;32889;-85
2022/01/24 02:26:12;;;;;;;;;;;;;;;-3.34;56.54;101272.34;4445369;32;32343;-85
2022/01/24 02:28:52;;;;;;;;;;;;;;;-3.39;56.49;101266.06;4448997;32;33381;-85
2022/01/24 02:31:38;;;;;;;;;;;;;;;-3.44;56.36;101264.09;4455137;32;32065;-85
2022/01/24 02:34:17;;;;;;;;;;;;;;;-3.62;56.74;101259.41;4465043;32;33239;-85
2022/01/24 02:36:46;;;;;;;;;;;;;;;-3.77;57.09;101260.16;4455242;32;34092;-85
2022/01/24 02:51:00;;;;;;;;;;;;;;;-3.97;57.58;101265.47;4442600;32;33125;-85
2022/01/24 02:53:30;;;;;;;;;;;;;;;-3.85;57.95;101276.47;4441261;32;33159;-85
2022/01/24 02:56:00;;;;;;;;;;;;;;;-3.76;57.72;101272.03;4447327;32;32382;-84
2022/01/24 02:58:28;;;;;;;;;;;;;;;-3.76;57.49;101268.63;4451975;32;34625;-85
2022/01/24 03:00:57;;;;;;;;;;;;;;;-3.94;58.07;101264.03;4457391;32;34652;-85
2022/01/24 03:03:26;;;;;;;;;;;;;;;-4.17;58.89;101269.12;4462315;32;34092;-84
2022/01/24 03:05:54;;;;;;;;;;;;;;;-4.09;58.13;101268.00;4459114;32;34705;-85
2022/01/24 03:08:23;;;;;;;;;;;;;;;-3.89;57.99;101270.31;4459600;32;33900;-85
2022/01/24 03:10:53;;;;;;;;;;;;;;;-4.05;58.48;101269.12;4448936;32;33791;-84
2022/01/24 03:13:32;;;;;;;;;;;;;;;-3.80;58.02;101264.97;4463761;32;33989;-85
2022/01/24 03:16:02;;;;;;;;;;;;;;;-3.79;57.98;101268.41;4452534;32;33647;-85
2022/01/24 03:18:31;;;;;;;;;;;;;;;-3.89;58.04;101275.38;4447455;32;36178;-85
2022/01/24 03:20:59;;;;;;;;;;;;;;;-3.92;58.41;101275.16;4448215;32;34217;-85
2022/01/24 03:23:28;;;;;;;;;;;;;;;-3.96;58.37;101277.34;4442011;32;32335;-85
2022/01/24 03:25:56;;;;;;;;;;;;;;;-3.89;58.06;101282.09;4448252;32;34073;-85
2022/01/24 03:28:26;;;;;;;;;;;;;;;-3.82;57.97;101288.47;4463195;32;35220;-85
2022/01/24 03:30:55;;;;;;;;;;;;;;;-3.82;58.08;101280.87;4455275;32;32016;-85
2022/01/24 03:33:23;;;;;;;;;;;;;;;-3.83;57.92;101287.59;4450379;32;34977;-85
2022/01/24 03:35:52;;;;;;;;;;;;;;;-3.99;58.46;101287.28;4455786;32;33521;-85
2022/01/24 03:38:23;;;;;;;;;;;;;;;-4.06;57.90;101293.56;4459179;32;34124;-85
2022/01/24 03:40:51;;;;;;;;;;;;;;;-4.01;58.12;101299.88;4468388;32;33909;-85
2022/01/24 03:43:20;;;;;;;;;;;;;;;-4.09;58.36;101295.91;4455527;32;34542;-85
2022/01/24 03:46:10;;;;;;;;;;;;;;;-4.06;57.97;101298.63;4460500;32;33573;-84
2022/01/24 03:48:41;;;;;;;;;;;;;;;-4.38;58.29;101293.81;4451491;32;33928;-84
2022/01/24 03:51:10;;;;;;;;;;;;;;;-4.30;58.10;101301.19;4449252;32;34617;-85
2022/01/24 03:53:38;;;;;;;;;;;;;;;-4.11;57.43;101298.34;4447393;32;33615;-85
2022/01/24 03:56:07;;;;;;;;;;;;;;;-4.08;57.02;101292.59;4457850;32;34640;-85
2022/01/24 03:58:36;;;;;;;;;;;;;;;-4.33;57.77;101295.00;4453837;32;36570;-85
2022/01/24 04:01:06;;;;;;;;;;;;;;;-4.26;57.73;101293.81;4447509;32;34610;-85
2022/01/24 04:03:35;;;;;;;;;;;;;;;-4.23;57.74;101296.56;4446551;32;33782;-85
2022/01/24 04:06:04;;;;;;;;;;;;;;;-4.36;58.16;101300.75;4444532;32;33449;-84
2022/01/24 04:08:32;;;;;;;;;;;;;;;-4.56;58.48;101294.25;4444914;32;34493;-85
2022/01/24 04:11:01;;;;;;;;;;;;;;;-4.23;57.80;101299.09;4442541;32;36217;-85
2022/01/24 04:13:33;;;;;;;;;;;;;;;-4.15;57.76;101295.47;4442744;32;34135;-85
2022/01/24 04:16:25;;;;;;;;;;;;;;;-4.15;57.86;101303.06;4442940;32;33316;-85
2022/01/24 04:19:04;;;;;;;;;;;;;;;-3.92;57.36;101302.16;4443588;32;33944;-83
2022/01/24 04:21:35;;;;;;;;;;;;;;;-4.21;58.30;101307.69;4444504;32;33481;-84
2022/01/24 04:24:06;;;;;;;;;;;;;;;-4.25;58.22;101310.75;4442383;32;33537;-85
2022/01/24 04:26:35;;;;;;;;;;;;;;;-4.30;58.44;101311.34;4457472;32;31256;-85
2022/01/24 04:29:04;;;;;;;;;;;;;;;-4.27;57.98;101313.22;4458426;32;33759;-85
2022/01/24 04:31:33;;;;;;;;;;;;;;;-4.36;58.00;101312.53;4457999;32;34977;-85
2022/01/24 04:34:03;;;;;;;;;;;;;;;-4.35;58.04;101311.75;4455238;32;34901;-85
2022/01/24 04:36:31;;;;;;;;;;;;;;;-4.61;58.85;101320.00;4450625;32;33324;-85
2022/01/24 04:39:00;;;;;;;;;;;;;;;-4.40;58.76;101323.22;4462748;32;34007;-84
2022/01/24 04:41:32;;;;;;;;;;;;;;;-4.36;58.39;101325.19;4450843;32;34312;-85
2022/01/24 04:44:09;;;;;;;;;;;;;;;-4.50;59.05;101326.72;4447817;32;34594;-84
2022/01/24 04:46:52;;;;;;;;;;;;;;;-4.35;58.48;101326.94;4454288;32;33233;-84
2022/01/24 04:52:18;;;;;;;;;;;;;;;-4.49;58.75;101336.09;4447127;32;33824;-85
2022/01/24 04:54:46;;;;;;;;;;;;;;;-4.36;58.37;101332.81;4446682;32;34616;-85
2022/01/24 04:57:15;;;;;;;;;;;;;;;-4.46;58.89;101336.31;4455186;32;34020;-85
2022/01/24 04:59:47;;;;;;;;;;;;;;;-4.58;59.35;101343.03;4458373;32;34037;-85
2022/01/24 05:02:15;;;;;;;;;;;;;;;-4.70;59.60;101337.06;4457824;32;33437;-84
2022/01/24 05:04:45;;;;;;;;;;;;;;;-4.50;59.44;101334.31;4450049;32;33688;-84
2022/01/24 05:07:14;;;;;;;;;;;;;;;-4.40;59.28;101341.81;4440626;32;34034;-84
2022/01/24 05:09:47;;;;;;;;;;;;;;;-4.23;59.02;101345.56;4448217;32;33939;-85
2022/01/24 05:12:23;;;;;;;;;;;;;;;-4.41;59.70;101349.31;4446880;32;34613;-85
2022/01/24 05:23:29;;;;;;;;;;;;;;;-4.08;58.90;101361.03;4459688;32;35798;-85
2022/01/24 05:25:59;;;;;;;;;;;;;;;-4.04;58.62;101364.66;4448237;32;33817;-84
2022/01/24 05:28:27;;;;;;;;;;;;;;;-4.43;59.92;101354.25;4448909;32;33678;-85
2022/01/24 05:30:59;;;;;;;;;;;;;;;-4.42;59.83;101356.06;4454479;32;33175;-84
2022/01/24 05:33:27;;;;;;;;;;;;;;;-4.39;59.40;101358.81;4451211;32;34225;-85
2022/01/24 05:35:57;;;;;;;;;;;;;;;-4.26;59.02;101367.28;4448205;32;33821;-84
2022/01/24 05:38:27;;;;;;;;;;;;;;;-4.36;59.26;101368.28;4454406;32;32071;-84
2022/01/24 05:41:00;;;;;;;;;;;;;;;-4.23;58.76;101372.56;4461942;32;33875;-84
2022/01/24 05:43:28;;;;;;;;;;;;;;;-4.17;58.31;101367.97;4463649;32;34148;-84
2022/01/24 05:45:57;;;;;;;;;;;;;;;-4.38;58.90;101364.75;4459976;32;34055;-84
2022/01/24 05:48:25;;;;;;;;;;;;;;;-4.22;58.50;101364.22;4458002;32;32750;-85
2022/01/24 05:50:54;;;;;;;;;;;;;;;-4.19;58.38;101375.44;4452528;32;33998;-84
2022/01/24 05:53:24;;;;;;;;;;;;;;;-4.15;58.29;101374.91;4451959;32;34225;-84
2022/01/24 05:55:53;;;;;;;;;;;;;;;-4.57;59.31;101382.75;4454704;32;33828;-85
2022/01/24 05:58:21;;;;;;;;;;;;;;;-4.42;58.79;101393.13;4449046;32;34064;-84
2022/01/24 06:00:50;;;;;;;;;;;;;;;-4.56;58.84;101385.41;4448002;32;34469;-84
2022/01/24 06:03:21;;;;;;;;;;;;;;;-4.45;58.40;101393.78;4455377;32;33783;-85
2022/01/24 06:05:49;;;;;;;;;;;;;;;-4.53;58.32;101392.34;4448304;32;33348;-85
2022/01/24 06:08:26;;;;;;;;;;;;;;;-4.45;57.65;101396.31;4453102;32;31845;-85
2022/01/24 06:10:58;;;;;;;;;;;;;;;-4.54;57.85;101391.47;4456698;32;33711;-86
2022/01/24 06:13:27;;;;;;;;;;;;;;;-4.76;58.37;101388.09;4452714;32;34033;-86
2022/01/24 06:15:58;;;;;;;;;;;;;;;-4.76;58.59;101398.22;4453228;32;34058;-86
2022/01/24 06:18:27;;;;;;;;;;;;;;;-4.53;57.98;101397.41;4444228;32;33714;-86
2022/01/24 06:20:57;;;;;;;;;;;;;;;-4.63;58.22;101400.03;4450302;32;32298;-86
2022/01/24 06:23:27;;;;;;;;;;;;;;;-4.62;58.27;101396.72;4458797;32;34277;-87
2022/01/24 06:25:55;;;;;;;;;;;;;;;-4.67;58.63;101401.44;4450849;32;33987;-86
2022/01/24 06:28:24;;;;;;;;;;;;;;;-4.78;58.83;101409.91;4455895;32;33386;-86
2022/01/24 06:30:53;;;;;;;;;;;;;;;-4.58;58.57;101416.47;4456440;32;34836;-85
2022/01/24 06:33:22;;;;;;;;;;;;;;;-4.59;58.70;101414.69;4449158;32;35071;-85
2022/01/24 06:35:50;;;;;;;;;;;;;;;-4.52;58.83;101416.91;4458473;32;34717;-85
2022/01/24 06:38:19;;;;;;;;;;;;;;;-4.48;58.99;101421.44;4449396;32;34998;-85
2022/01/24 06:40:49;;;;;;;;;;;;;;;-4.40;59.00;101427.94;4453504;32;33954;-83
2022/01/24 06:43:17;;;;;;;;;;;;;;;-4.46;59.21;101424.97;4456627;32;35013;-83
2022/01/24 06:45:45;;;;;;;;;;;;;;;-4.42;59.33;101426.97;4457677;32;33937;-83
2022/01/24 06:48:14;;;;;;;;;;;;;;;-4.36;59.06;101442.63;4476299;32;32991;-83
2022/01/24 06:50:43;;;;;;;;;;;;;;;-4.17;57.81;101442.34;4466729;32;35081;-83
2022/01/24 06:53:11;;;;;;;;;;;;;;;-4.06;57.08;101438.03;4452835;32;34261;-82
2022/01/24 06:55:40;;;;;;;;;;;;;;;-4.20;57.42;101441.25;4448343;32;34197;-83
2022/01/24 06:58:09;;;;;;;;;;;;;;;-4.33;58.01;101444.50;4450701;32;33189;-83
2022/01/24 07:00:38;;;;;;;;;;;;;;;-4.22;57.91;101446.19;4460962;32;33827;-83
2022/01/24 07:03:06;;;;;;;;;;;;;;;-4.18;58.26;101452.34;4460738;32;33310;-83
2022/01/24 07:05:35;;;;;;;;;;;;;;;-4.20;58.17;101461.53;4455545;32;34885;-83
2022/01/24 07:08:04;;;;;;;;;;;;;;;-4.09;58.14;101468.25;4456019;32;33372;-83
2022/01/24 07:10:33;;;;;;;;;;;;;;;-4.15;58.35;101462.75;4451754;32;34183;-83
2022/01/24 07:13:01;;;;;;;;;;;;;;;-4.01;58.02;101462.09;4448919;32;34251;-83
2022/01/24 07:15:34;;;;;;;;;;;;;;;-4.00;58.23;101465.53;4460580;32;34444;-83
2022/01/24 07:20:50;;;;;;;;;;;;;;;-3.86;57.92;101470.81;4454689;32;32750;-84
2022/01/24 07:23:19;;;;;;;;;;;;;;;-4.04;58.57;101466.94;4457141;32;35238;-84
2022/01/24 07:25:51;;;;;;;;;;;;;;;-3.86;58.60;101473.38;4460942;32;34151;-84
2022/01/24 07:28:20;;;;;;;;;;;;;;;-3.81;57.78;101481.31;4464792;32;34068;-84
2022/01/24 07:30:49;;;;;;;;;;;;;;;-4.08;57.67;101488.66;4465988;32;33693;-84
2022/01/24 07:33:18;;;;;;;;;;;;;;;-3.64;56.84;101487.59;4460868;32;34248;-84
2022/01/24 07:35:46;;;;;;;;;;;;;;;-3.78;56.97;101491.66;4450138;32;34792;-84
2022/01/24 07:38:15;;;;;;;;;;;;;;;-3.87;57.19;101489.34;4461439;32;33451;-84
2022/01/24 07:40:47;;;;;;;;;;;;;;;-3.82;57.30;101498.94;4464872;32;34064;-84
2022/01/24 07:43:16;;;;;;;;;;;;;;;-3.70;57.08;101499.81;4469617;32;33886;-84
2022/01/24 07:45:44;;;;;;;;;;;;;;;-3.65;57.20;101508.66;4454741;32;33947;-85
2022/01/24 07:48:15;;;;;;;;;;;;;;;-3.69;57.68;101504.16;4454708;32;33718;-84
2022/01/24 07:50:46;;;;;;;;;;;;;;;-3.59;57.66;101514.19;4452705;32;34692;-85
2022/01/24 07:53:15;;;;;;;;;;;;;;;-3.50;57.76;101514.00;4464250;32;34928;-85
2022/01/24 07:56:04;;;;;;;;;;;;;;;-3.38;57.53;101519.94;4456677;32;33792;-84
2022/01/24 07:58:32;;;;;;;;;;;;;;;-3.28;57.17;101526.56;4468706;32;33091;-85
2022/01/24 08:01:01;;;;;;;;;;;;;;;-3.31;57.06;101523.78;4462206;32;33854;-84
2022/01/24 08:03:31;;;;;;;;;;;;;;;-2.94;56.39;101523.88;4455040;32;34937;-85
2022/01/24 08:06:00;;;;;;;;;;;;;;;-3.10;56.99;101525.31;4454376;32;34063;-85
2022/01/24 08:08:28;;;;;;;;;;;;;;;-3.02;57.07;101528.41;4459907;32;33985;-85
2022/01/24 08:10:57;;;;;;;;;;;;;;;-2.94;57.16;101524.75;4464415;32;34277;-85
2022/01/24 08:13:25;;;;;;;;;;;;;;;-2.60;56.03;101527.12;4451263;32;33669;-84
2022/01/24 08:15:54;;;;;;;;;;;;;;;-2.42;55.36;101530.91;4450143;32;34822;-84
2022/01/24 08:18:22;;;;;;;;;;;;;;;-2.66;56.12;101537.75;4446423;32;33747;-85
2022/01/24 08:20:52;;;;;;;;;;;;;;;-2.48;56.17;101534.72;4450976;32;33874;-85
2022/01/24 08:23:21;;;;;;;;;;;;;;;-2.62;56.81;101542.25;4455416;32;33837;-85
2022/01/24 08:25:55;;;;;;;;;;;;;;;-2.31;56.26;101538.41;4461139;32;33939;-85
2022/01/24 08:28:23;;;;;;;;;;;;;;;-2.36;56.66;101538.09;4448986;32;34044;-85
2022/01/24 08:30:53;;;;;;;;;;;;;;;-2.32;56.43;101542.63;4450819;32;33597;-85
2022/01/24 08:33:22;;;;;;;;;;;;;;;-2.49;57.38;101544.00;4457683;32;34181;-85
2022/01/24 08:35:52;;;;;;;;;;;;;;;-2.24;56.57;101545.66;4466811;32;34588;-86
2022/01/24 08:38:21;;;;;;;;;;;;;;;-2.67;58.04;101550.31;4448769;32;33206;-85
2022/01/24 08:40:53;;;;;;;;;;;;;;;-2.10;56.56;101546.56;4448820;32;34218;-85
2022/01/24 08:43:36;;;;;;;;;;;;;;;-2.17;56.81;101550.38;4448552;32;34275;-85
2022/01/24 08:46:06;;;;;;;;;;;;;;;-2.04;56.39;101545.34;4451018;32;33842;-85
2022/01/24 08:48:36;;;;;;;;;;;;;;;-1.79;55.80;101552.06;4457080;32;32599;-84
2022/01/24 08:51:06;;;;;;;;;;;;;;;-1.68;55.69;101550.25;4468912;32;33564;-84
2022/01/24 08:53:34;;;;;;;;;;;;;;;-1.67;55.66;101549.44;4462953;32;33894;-85
2022/01/24 08:56:04;;;;;;;;;;;;;;;-1.39;54.59;101547.06;4462160;32;35277;-84
2022/01/24 08:58:33;;;;;;;;;;;;;;;-1.35;54.08;101549.91;4460283;32;31027;-85
2022/01/24 09:01:02;;;;;;;;;;;;;;;-1.43;54.28;101551.03;4454235;32;33956;-85
2022/01/24 09:03:36;;;;;;;;;;;;;;;-1.27;53.86;101545.28;4459701;32;33800;-84
2022/01/24 09:06:06;;;;;;;;;;;;;;;-1.19;52.53;101546.66;4459440;32;34275;-85
2022/01/24 09:08:35;;;;;;;;;;;;;;;-1.18;52.88;101556.06;4458522;32;32843;-84
2022/01/24 09:11:04;;;;;;;;;;;;;;;-1.48;52.41;101556.63;4456623;32;34157;-84
2022/01/24 09:13:32;;;;;;;;;;;;;;;-1.01;52.13;101548.63;4448023;32;34858;-85
2022/01/24 09:16:07;;;;;;;;;;;;;;;-1.44;51.67;101536.56;4459861;32;33859;-85
2022/01/24 09:18:36;;;;;;;;;;;;;;;-1.54;52.31;101552.91;4461983;32;32976;-85
2022/01/24 09:21:06;;;;;;;;;;;;;;;-1.57;51.88;101554.34;4455867;32;34864;-85
2022/01/24 09:23:34;;;;;;;;;;;;;;;-1.18;50.76;101555.19;4453340;32;33939;-85
2022/01/24 09:26:02;;;;;;;;;;;;;;;-0.60;49.87;101556.31;4445585;32;34142;-84
2022/01/24 09:28:31;;;;;;;;;;;;;;;-0.98;50.02;101557.34;4449572;32;33912;-85
2022/01/24 09:30:59;;;;;;;;;;;;;;;-1.60;51.08;101557.59;4460316;32;33946;-85
2022/01/24 09:33:28;;;;;;;;;;;;;;;-1.27;50.03;101560.56;4453247;32;34020;-85
2022/01/24 09:35:59;;;;;;;;;;;;;;;-0.94;49.22;101553.34;4456350;32;34832;-85
2022/01/24 09:38:31;;;;;;;;;;;;;;;-0.49;47.35;101562.94;4455057;32;33361;-85
2022/01/24 09:41:10;;;;;;;;;;;;;;;-0.27;46.76;101561.69;4459069;32;34053;-85
2022/01/24 09:43:38;;;;;;;;;;;;;;;-0.50;48.03;101550.09;4458261;32;34061;-85
2022/01/24 09:46:08;;;;;;;;;;;;;;;-0.45;47.55;101551.25;4454875;32;33700;-85
2022/01/24 09:48:45;;;;;;;;;;;;;;;-0.41;47.33;101543.03;4449306;32;33244;-85
2022/01/24 09:51:14;;;;;;;;;;;;;;;-0.44;48.00;101546.25;4462363;32;33600;-85
2022/01/24 09:53:44;;;;;;;;;;;;;;;-0.64;47.49;101549.25;4464314;32;34297;-85
2022/01/24 09:56:12;;;;;;;;;;;;;;;-0.13;46.23;101540.44;4463604;32;32470;-85
2022/01/24 09:58:41;;;;;;;;;;;;;;;0.24;45.35;101539.19;4456783;32;32551;-85
2022/01/24 10:01:09;;;;;;;;;;;;;;;0.14;46.16;101535.22;4451280;32;34876;-85
2022/01/24 10:03:38;;;;;;;;;;;;;;;0.32;45.70;101533.72;4453993;32;34172;-85
2022/01/24 10:06:12;;;;;;;;;;;;;;;0.30;45.53;101532.75;4448597;32;32347;-85
2022/01/24 10:08:41;;;;;;;;;;;;;;;-0.02;46.17;101534.31;4449584;32;32757;-85
2022/01/24 10:11:11;;;;;;;;;;;;;;;0.25;44.95;101538.41;4452291;32;32024;-85
2022/01/24 10:16:31;;;;;;;;;;;;;;;0.39;45.46;101532.41;4461176;32;34278;-85
2022/01/24 10:19:05;;;;;;;;;;;;;;;0.28;45.65;101528.34;4448798;32;33476;-85
2022/01/24 10:21:54;;;;;;;;;;;;;;;0.38;44.80;101523.84;4454772;32;34575;-85
2022/01/24 10:24:30;;;;;;;;;;;;;;;0.15;43.21;101526.78;4450841;32;34231;-85
2022/01/24 10:27:07;;;;;;;;;;;;;;;0.44;44.01;101520.78;4459410;32;34142;-85
2022/01/24 10:29:41;;;;;;;;;;;;;;;0.48;44.43;101532.06;4456883;32;32753;-85
2022/01/24 10:32:09;;;;;;;;;;;;;;;0.55;44.24;101526.50;4454022;32;34133;-85
2022/01/24 10:34:38;;;;;;;;;;;;;;;0.75;43.69;101523.41;4451867;32;34108;-85
2022/01/24 10:37:06;;;;;;;;;;;;;;;0.44;43.72;101525.03;4454365;32;34068;-86
2022/01/24 10:39:54;;;;;;;;;;;;;;;0.74;43.16;101526.75;4456604;32;33055;-85
2022/01/24 10:42:34;;;;;;;;;;;;;;;0.81;43.39;101528.84;4450887;32;34188;-85
2022/01/24 10:45:05;;;;;;;;;;;;;;;0.56;44.10;101524.03;4455361;32;33828;-86
2022/01/24 10:47:44;;;;;;;;;;;;;;;0.79;42.58;101524.44;4456726;32;34069;-85
2022/01/24 10:50:18;;;;;;;;;;;;;;;0.93;42.98;101520.09;4455425;32;31813;-85
2022/01/24 10:52:46;;;;;;;;;;;;;;;0.93;42.81;101525.22;4454174;32;34065;-85
2022/01/24 10:55:16;;;;;;;;;;;;;;;0.79;43.06;101516.78;4456654;32;33548;-85
2022/01/24 10:57:46;;;;;;;;;;;;;;;0.87;42.87;101515.56;4461393;32;34203;-85
2022/01/24 11:00:16;;;;;;;;;;;;;;;0.81;41.84;101517.75;4461747;32;32058;-86
2022/01/24 11:02:45;;;;;;;;;;;;;;;0.95;42.45;101506.62;4450242;32;33922;-86
2022/01/24 11:05:15;;;;;;;;;;;;;;;1.04;42.25;101511.37;4457570;32;34878;-85
2022/01/24 11:07:52;;;;;;;;;;;;;;;0.96;41.44;101520.28;4459956;32;34683;-86
2022/01/24 11:10:21;;;;;;;;;;;;;;;0.87;42.06;101506.97;4460341;32;33961;-85
2022/01/24 11:12:51;;;;;;;;;;;;;;;1.11;41.72;101502.31;4466182;32;33966;-85
2022/01/24 11:15:23;;;;;;;;;;;;;;;1.27;41.23;101498.13;4462803;32;33645;-86
2022/01/24 11:17:54;;;;;;;;;;;;;;;1.22;41.51;101507.22;4457398;32;33679;-85
2022/01/24 11:20:29;;;;;;;;;;;;;;;1.25;41.77;101507.38;4461696;32;33357;-85
2022/01/24 11:23:00;;;;;;;;;;;;;;;1.20;41.41;101513.94;4461419;32;33977;-86
2022/01/24 11:25:30;;;;;;;;;;;;;;;1.25;41.66;101512.50;4460050;32;34241;-85
2022/01/24 11:28:00;;;;;;;;;;;;;;;1.26;41.56;101521.94;4466382;32;33716;-85
2022/01/24 11:30:29;;;;;;;;;;;;;;;1.34;41.50;101517.22;4460701;32;34040;-85
2022/01/24 11:33:01;;;;;;;;;;;;;;;1.14;42.17;101516.16;4459771;32;34642;-85
2022/01/24 11:35:31;;;;;;;;;;;;;;;0.63;42.11;101515.94;4452065;32;34383;-86
2022/01/24 11:38:00;;;;;;;;;;;;;;;1.16;41.57;101509.47;4450115;32;33627;-86
2022/01/24 11:40:28;;;;;;;;;;;;;;;1.33;40.73;101504.34;4464053;32;32512;-85
2022/01/24 11:42:57;;;;;;;;;;;;;;;1.54;40.90;101502.94;4467484;32;34914;-85
2022/01/24 11:45:44;;;;;;;;;;;;;;;1.13;41.33;101491.37;4461445;32;35352;-85
2022/01/24 11:48:16;;;;;;;;;;;;;;;1.19;41.53;101494.28;4464754;32;33961;-85
2022/01/24 11:50:54;;;;;;;;;;;;;;;1.69;39.37;101490.06;4465118;32;33073;-86
2022/01/24 11:53:24;;;;;;;;;;;;;;;1.39;40.41;101499.59;4463650;32;34971;-85
2022/01/24 11:55:54;;;;;;;;;;;;;;;1.17;41.06;101492.44;4463000;32;35501;-86
2022/01/24 11:58:26;;;;;;;;;;;;;;;1.06;41.20;101489.28;4458125;32;36157;-86
2022/01/24 12:01:01;;;;;;;;;;;;;;;1.33;40.56;101489.00;4464218;32;33873;-86
2022/01/24 12:03:30;;;;;;;;;;;;;;;1.53;41.00;101483.28;4459950;32;33822;-86
2022/01/24 12:06:04;;;;;;;;;;;;;;;1.62;40.52;101480.31;4464560;32;34271;-85
2022/01/24 12:09:00;;;;;;;;;;;;;;;1.57;39.95;101479.19;4464703;32;34885;-86
2022/01/24 12:11:34;;;;;;;;;;;;;;;1.70;40.06;101474.78;4463561;32;34272;-86
2022/01/24 12:14:23;;;;;;;;;;;;;;;1.92;40.56;101468.22;4468063;32;34866;-85
2022/01/24 12:16:54;;;;;;;;;;;;;;;1.90;39.15;101470.69;4469367;32;34381;-85
2022/01/24 12:19:28;;;;;;;;;;;;;;;1.82;39.66;101478.78;4462009;32;35459;-85
2022/01/24 12:21:56;;;;;;;;;;;;;;;1.58;40.10;101470.75;4464758;32;33677;-86
2022/01/24 12:24:25;;;;;;;;;;;;;;;1.75;40.36;101469.03;4460690;32;33689;-86
2022/01/24 12:27:03;;;;;;;;;;;;;;;2.03;40.47;101469.62;4448903;32;34176;-87
2022/01/24 12:29:34;;;;;;;;;;;;;;;1.75;39.39;101474.16;4456238;32;34763;-87
2022/01/24 12:32:04;;;;;;;;;;;;;;;1.76;39.75;101470.78;4453225;32;32930;-87
2022/01/24 12:34:37;;;;;;;;;;;;;;;1.60;40.04;101464.91;4457245;32;33814;-86
2022/01/24 12:37:08;;;;;;;;;;;;;;;1.83;39.32;101473.72;4462482;32;33643;-86
2022/01/24 12:40:06;;;;;;;;;;;;;;;1.76;39.94;101463.97;4460586;32;34045;-86
2022/01/24 12:42:56;;;;;;;;;;;;;;;1.61;40.51;101465.78;4459036;32;32636;-87
2022/01/24 12:48:33;;;;;;;;;;;;;;;1.79;41.17;101468.38;4455903;32;34280;-86
2022/01/24 12:51:01;;;;;;;;;;;;;;;2.17;40.78;101460.06;4462252;32;33713;-87
2022/01/24 12:53:37;;;;;;;;;;;;;;;2.26;40.38;101459.66;4458755;32;34282;-86
2022/01/24 12:56:07;;;;;;;;;;;;;;;2.30;39.74;101467.56;4455452;32;33977;-84
2022/01/24 12:58:36;;;;;;;;;;;;;;;2.25;39.67;101457.91;4454173;32;33695;-84
2022/01/24 13:01:17;;;;;;;;;;;;;;;2.04;40.04;101458.59;4453238;32;34060;-84
2022/01/24 13:03:50;;;;;;;;;;;;;;;2.30;39.46;101454.75;4458999;32;32241;-84
2022/01/24 13:06:20;;;;;;;;;;;;;;;2.33;39.53;101454.00;4462350;32;35015;-84
2022/01/24 13:08:54;;;;;;;;;;;;;;;2.69;38.96;101451.47;4459082;32;34260;-84
2022/01/24 13:11:23;;;;;;;;;;;;;;;2.38;39.56;101454.25;4449899;32;32320;-85
2022/01/24 13:13:59;;;;;;;;;;;;;;;2.07;39.88;101452.72;4455188;32;33113;-86
2022/01/24 13:22:32;;;;;;;;;;;;;;;2.05;40.40;101450.09;4457653;32;33922;-85
2022/01/24 13:25:02;;;;;;;;;;;;;;;2.17;39.86;101443.81;4456144;32;33814;-87
2022/01/24 13:27:34;;;;;;;;;;;;;;;2.01;39.79;101445.62;4463751;32;34255;-85
2022/01/24 13:30:04;;;;;;;;;;;;;;;2.03;40.22;101448.25;4448093;32;34090;-85
2022/01/24 13:32:49;;;;;;;;;;;;;;;2.04;39.96;101455.16;4446846;32;34201;-85
2022/01/24 13:35:26;;;;;;;;;;;;;;;2.26;39.22;101446.84;4449104;32;34654;-85
2022/01/24 13:37:59;;;;;;;;;;;;;;;2.07;39.19;101451.03;4458667;32;33723;-85
2022/01/24 13:40:37;;;;;;;;;;;;;;;2.02;39.82;101452.50;4461895;32;34286;-85
2022/01/24 13:43:10;;;;;;;;;;;;;;;2.03;40.03;101458.50;4448760;32;35058;-85
2022/01/24 13:45:39;;;;;;;;;;;;;;;2.04;39.75;101453.47;4449309;32;33013;-85
2022/01/24 13:48:16;;;;;;;;;;;;;;;2.12;39.90;101458.97;4452264;32;34598;-85
2022/01/24 13:50:50;;;;;;;;;;;;;;;1.99;39.42;101454.03;4453667;32;36481;-85
2022/01/24 13:53:34;;;;;;;;;;;;;;;1.88;40.19;101448.38;4449404;32;34617;-86
2022/01/24 13:56:15;;;;;;;;;;;;;;;1.90;40.62;101447.66;4452810;32;33269;-86
2022/01/24 13:58:56;;;;;;;;;;;;;;;2.19;39.75;101447.34;4453680;32;34055;-86
2022/01/24 14:01:25;;;;;;;;;;;;;;;1.79;40.90;101460.69;4449478;32;32260;-86
2022/01/24 14:03:57;;;;;;;;;;;;;;;2.08;40.36;101449.38;4447599;32;33278;-86
2022/01/24 14:06:31;;;;;;;;;;;;;;;2.06;40.47;101445.88;4446814;32;33188;-88
2022/01/24 14:09:08;;;;;;;;;;;;;;;1.70;41.74;101449.22;4449929;32;34895;-87
2022/01/24 14:11:43;;;;;;;;;;;;;;;2.23;40.28;101457.81;4448787;32;35063;-86
2022/01/24 14:14:14;;;;;;;;;;;;;;;2.37;39.86;101452.47;4451791;32;33870;-87
2022/01/24 14:16:51;;;;;;;;;;;;;;;2.21;40.13;101455.97;4455673;32;33391;-86
2022/01/24 14:19:28;;;;;;;;;;;;;;;2.21;39.89;101450.87;4451665;32;32875;-86